Pagrindinis puslapis
METAR-TAF:

METAR-TAF

Oro uostai :

Liublinas, Lenkija

platuma: 51-13-55N, ilguma: 22-41-25E, Aukštis: 203 m

Dabartinis oras

Ataskaita buvo paskelbta 11 minutes, ne 06:00 UTC
Vėjas 4 kt iš Vakarų/Pietvakarių
Temperatūra 3°C
Drėgmė 100%
Slėgis 1026 hPa
Matomumas: 8000 m

METAR: EPLB 200600Z 25004KT 8000 NSC 03/03 Q1026

Laikas: 08:11 (06:11 UTC)

Prognozė

Ataskaita buvo paskelbta 41 minutes, ne 05:30 UTC
Prognozė galioja nuo 20 metu 06 UTC su 20 metu 15 UTC
Vėjas 2 kt nuo kintamojo kryptimis
Matomumas: 4500 m
rūkana
Tikimybė 40%
nuo 20 metu 06 UTC su 20 metu 07 UTC
Matomumas: 1500 m
Su prošvaistėmis ne aukštis 500 ft
rūkana
Tapsmas
nuo 20 metu 06 UTC su 20 metu 08 UTC
Vėjas 10 kt iš Pietų
Matomumas 10 km arba daugiau
nėra debesų žemiau 1500 m ir nėra kamuolinių lietaus debesų

TAF: EPLB 200530Z 2006/2015 VRB02KT 4500 BR NSC PROB40 2006/2007 1500 BR BKN005 BECMG 2006/2008 18010KT CAVOK

Orai ataskaitas ir orų prognozės (METAR, TAF).

turimą stotys yra geltonos ir raudonos taškus žemėlapyje.

Perkelti pele per norėdami pamatyti stoties vardą.

Tada spustelėkite, norėdami matyti oro stebėjimo ir prognozės.

Norėdami pakeisti žemėlapį: spustelėkite ant žalios mygtukų su juodo kryžiaus žemyn,; žalią mygtuką su brūkšneliu, jei norite nutolinti; arba žalių rodyklių gretimoms žemėlapius.


METAR-TAF: